Time;durP1;ratioP1;P1;durP2;ratioP2;P2;SDS_P1;SDS_P2;PMS_P1;PMS_P2;Temp;Humidity;BMP_temperature;BMP_pressure;BME280_temperature;BME280_humidity;BME280_pressure;Samples;Min_cycle;Max_cycle;Signal;HPM_P1;HPM_P2
2022/08/08 00:00:43;;;;;;;1.83;0.60;;;;;;;17.36;79.04;97175.78;5047107;28;20414;-72
2022/08/08 00:03:42;;;;;;;2.58;1.02;;;;;;;17.09;83.81;97177.97;5053956;28;20037;-72
2022/08/08 00:06:28;;;;;;;1.90;1.00;;;;;;;16.96;81.10;97177.47;5049244;28;20443;-72
2022/08/08 00:09:04;;;;;;;2.33;0.90;;;;;;;16.84;82.77;97176.94;5069636;28;20070;-72
2022/08/08 00:11:45;;;;;;;3.55;0.73;;;;;;;16.92;84.50;97173.69;5050562;28;20516;-72
2022/08/08 00:14:17;;;;;;;;;;;;;;;16.78;83.90;97171.78;5050469;28;20988;-72
2022/08/08 00:17:06;;;;;;;2.00;0.70;;;;;;;16.86;82.66;97177.47;5046953;28;19920;-72
2022/08/08 00:19:46;;;;;;;3.10;1.00;;;;;;;16.79;83.23;97168.81;5048969;28;20515;-72
2022/08/08 00:22:19;;;;;;;1.73;1.00;;;;;;;16.70;83.01;97165.03;5053755;28;20260;-72
2022/08/08 00:24:49;;;;;;;2.00;0.77;;;;;;;16.73;82.32;97175.31;5046362;28;20075;-72
2022/08/08 00:27:18;;;;;;;2.10;0.70;;;;;;;16.74;83.45;97171.53;5048883;28;20086;-72
2022/08/08 00:29:54;;;;;;;3.88;1.00;;;;;;;16.67;88.57;97173.66;5047417;28;20085;-72
2022/08/08 00:32:31;;;;;;;2.00;0.80;;;;;;;16.56;87.88;97164.72;5048083;28;20049;-72
2022/08/08 00:35:13;;;;;;;5.65;0.93;;;;;;;16.57;87.46;97171.75;5047888;28;20075;-72
2022/08/08 00:37:56;;;;;;;3.15;0.90;;;;;;;16.46;83.98;97170.13;5067133;28;20059;-72
2022/08/08 00:40:27;;;;;;;2.75;0.68;;;;;;;16.50;85.65;97173.09;5048801;28;20419;-72
2022/08/08 00:42:52;;;;;;;;;;;;;;;16.33;89.07;97167.94;5051153;28;20722;-72
2022/08/08 00:45:30;;;;;;;2.70;0.75;;;;;;;16.22;87.93;97171.72;5050822;28;19919;-72
2022/08/08 00:47:58;;;;;;;3.03;0.70;;;;;;;16.16;88.84;97173.59;5050445;28;20528;-72
2022/08/08 00:50:42;;;;;;;2.88;0.80;;;;;;;16.07;92.27;97167.91;5049628;28;20087;-72
2022/08/08 00:53:19;;;;;;;2.58;0.75;;;;;;;15.93;89.01;97168.66;5047379;28;20043;-72
2022/08/08 00:56:06;;;;;;;3.03;0.90;;;;;;;15.85;89.36;97149.19;5049130;28;20098;-72
2022/08/08 00:59:08;;;;;;;2.13;0.80;;;;;;;15.85;90.74;97162.69;5044028;28;20181;-72
2022/08/08 01:01:49;;;;;;;2.03;0.73;;;;;;;15.84;90.27;97171.88;5067719;28;20481;-72
2022/08/08 01:05:06;;;;;;;1.55;0.70;;;;;;;15.63;91.89;97158.56;5048769;28;20150;-72
2022/08/08 01:08:12;;;;;;;4.85;0.93;;;;;;;15.75;92.53;97170.75;5067132;28;20484;-72
2022/08/08 01:11:04;;;;;;;1.90;0.73;;;;;;;15.75;92.58;97167.25;5047388;28;20041;-72
2022/08/08 01:14:06;;;;;;;2.15;0.80;;;;;;;15.74;91.34;97166.44;5046450;28;20044;-72
2022/08/08 01:17:00;;;;;;;3.28;0.82;;;;;;;15.69;91.48;97163.72;5079116;27;20059;-72
2022/08/08 01:19:55;;;;;;;2.30;0.80;;;;;;;15.53;92.37;97167.41;5066342;28;20450;-72
2022/08/08 01:22:59;;;;;;;6.47;0.90;;;;;;;15.54;93.27;97166.31;5069291;28;20049;-72
2022/08/08 01:25:46;;;;;;;1.92;0.80;;;;;;;15.60;92.53;97158.00;5076881;28;20040;-72
2022/08/08 01:28:26;;;;;;;2.28;0.90;;;;;;;15.42;92.97;97171.13;5051829;28;20154;-72
2022/08/08 01:31:04;;;;;;;1.80;0.80;;;;;;;15.26;93.92;97170.25;5075498;28;20562;-72
2022/08/08 01:33:33;;;;;;;1.60;0.70;;;;;;;15.37;92.03;97180.00;5054440;28;20053;-72
2022/08/08 01:36:37;;;;;;;1.83;0.85;;;;;;;15.37;92.52;97171.91;5079161;28;20399;-72
2022/08/08 01:39:28;;;;;;;4.32;0.70;;;;;;;15.43;92.25;97178.94;5046609;28;20041;-72
2022/08/08 01:42:16;;;;;;;2.00;0.77;;;;;;;15.38;93.51;97173.53;5062876;28;20044;-72
2022/08/08 01:44:48;;;;;;;4.07;1.08;;;;;;;15.43;91.92;97178.94;5047893;28;20094;-72
2022/08/08 01:47:36;;;;;;;3.67;0.88;;;;;;;15.46;92.55;97173.03;5045997;28;20302;-72
2022/08/08 01:50:21;;;;;;;1.73;0.77;;;;;;;15.49;93.32;97171.72;5049102;28;20130;-72
2022/08/08 01:53:01;;;;;;;2.15;0.80;;;;;;;15.48;94.05;97173.56;5077681;28;20280;-72
2022/08/08 01:55:39;;;;;;;2.30;1.00;;;;;;;15.46;94.38;97177.59;5050186;28;20420;-72
2022/08/08 01:58:13;;;;;;;2.72;0.90;;;;;;;15.42;93.33;97180.03;5061052;28;20398;-72
2022/08/08 02:00:52;;;;;;;3.22;1.00;;;;;;;15.41;92.90;97182.97;5032588;28;20620;-72
2022/08/08 02:03:38;;;;;;;2.40;0.80;;;;;;;15.39;93.43;97180.53;5078564;27;20095;-72
2022/08/08 02:06:41;;;;;;;3.88;0.90;;;;;;;15.33;95.24;97174.31;5049620;28;20267;-72
2022/08/08 02:09:29;;;;;;;2.05;0.90;;;;;;;15.23;94.71;97184.22;5079706;27;20032;-72
2022/08/08 02:11:57;;;;;;;3.70;1.08;;;;;;;15.18;93.53;97185.00;5075418;28;20041;-72
2022/08/08 02:14:31;;;;;;;8.27;0.90;;;;;;;15.04;94.33;97175.75;5045183;28;20078;-72
2022/08/08 02:17:03;;;;;;;4.47;0.90;;;;;;;15.06;95.00;97176.28;5078445;28;20037;-72
2022/08/08 02:19:41;;;;;;;1.70;0.80;;;;;;;15.07;94.37;97183.31;5045999;28;20100;-72
2022/08/08 02:22:31;;;;;;;2.00;0.80;;;;;;;15.12;94.66;97180.66;5046419;28;20122;-72
2022/08/08 02:25:02;;;;;;;2.13;0.97;;;;;;;15.15;95.68;97163.13;5048430;28;20036;-72
2022/08/08 02:27:37;;;;;;;5.65;1.20;;;;;;;15.12;94.64;97175.25;5046927;28;20345;-72
2022/08/08 02:30:09;;;;;;;3.50;1.30;;;;;;;15.04;95.54;97173.88;5046905;28;20055;-72
2022/08/08 02:33:02;;;;;;;3.33;0.93;;;;;;;15.12;96.89;97182.53;5048194;28;20048;-72
2022/08/08 02:35:36;;;;;;;6.32;1.30;;;;;;;15.13;98.48;97182.28;5044899;28;20048;-72
2022/08/08 02:38:26;;;;;;;2.83;1.00;;;;;;;15.11;96.53;97173.66;5065150;28;20166;-72
2022/08/08 02:40:59;;;;;;;3.75;1.10;;;;;;;15.10;95.34;97173.88;5051704;28;20056;-72
2022/08/08 02:43:34;;;;;;;3.38;1.10;;;;;;;15.10;94.89;97176.56;5047908;28;20136;-72
2022/08/08 02:46:14;;;;;;;1.80;0.75;;;;;;;15.08;96.63;97181.41;5063606;28;20041;-72
2022/08/08 02:48:59;;;;;;;2.42;0.90;;;;;;;15.04;95.95;97178.44;5065501;28;20372;-72
2022/08/08 02:51:59;;;;;;;2.30;0.90;;;;;;;14.98;97.51;97182.16;5050667;28;20040;-72
2022/08/08 02:54:43;;;;;;;3.42;1.02;;;;;;;14.99;95.98;97181.09;5046922;28;20041;-72
2022/08/08 02:57:32;;;;;;;3.38;1.23;;;;;;;14.88;95.61;97174.84;5046879;28;20040;-72
2022/08/08 03:00:18;;;;;;;2.97;1.00;;;;;;;14.81;96.65;97184.22;5048247;28;20345;-72
2022/08/08 03:03:43;;;;;;;2.63;1.20;;;;;;;14.83;98.67;97184.75;5046172;28;20520;-72
2022/08/08 03:06:33;;;;;;;2.70;1.00;;;;;;;14.73;98.50;97180.91;4970092;28;20094;-72
2022/08/08 03:09:33;;;;;;;2.83;1.00;;;;;;;14.74;100.00;97176.34;4972863;28;20046;-72
2022/08/08 03:12:39;;;;;;;5.03;1.20;;;;;;;14.71;100.00;97179.56;5043952;28;20826;-72
2022/08/08 03:15:35;;;;;;;3.85;1.00;;;;;;;14.49;100.00;97172.38;5044035;28;20262;-71
2022/08/08 03:18:01;;;;;;;4.25;1.10;;;;;;;14.44;100.00;97191.13;5028332;28;20044;-71
2022/08/08 03:20:26;;;;;;;3.60;1.20;;;;;;;14.39;100.00;97192.94;5044873;28;20314;-71
2022/08/08 03:22:53;;;;;;;4.15;1.10;;;;;;;14.33;100.00;97184.03;5045586;28;20383;-71
2022/08/08 03:25:22;;;;;;;4.20;1.20;;;;;;;14.29;100.00;97179.41;5031215;28;20124;-71
2022/08/08 03:28:04;;;;;;;3.67;1.13;;;;;;;14.20;100.00;97185.25;5052016;28;20511;-71
2022/08/08 03:30:33;;;;;;;5.25;1.23;;;;;;;14.13;100.00;97179.25;5046676;28;20124;-71
2022/08/08 03:33:18;;;;;;;3.35;1.13;;;;;;;14.11;100.00;97186.75;5035909;28;20109;-71
2022/08/08 03:35:49;;;;;;;3.42;1.20;;;;;;;14.11;100.00;97186.75;5078980;28;20097;-71
2022/08/08 03:38:19;;;;;;;2.05;1.00;;;;;;;14.09;100.00;97178.16;5070176;28;20090;-71
2022/08/08 03:40:50;;;;;;;4.30;1.10;;;;;;;14.14;100.00;97185.44;5034514;28;20072;-71
2022/08/08 03:43:16;;;;;;;3.45;1.33;;;;;;;14.17;100.00;97185.75;5052780;28;20938;-71
2022/08/08 03:45:43;;;;;;;3.28;1.00;;;;;;;14.18;100.00;97181.19;5068369;28;20090;-71
2022/08/08 03:48:11;;;;;;;4.13;1.10;;;;;;;14.13;100.00;97181.13;5050091;28;20531;-71
2022/08/08 03:50:47;;;;;;;3.78;1.17;;;;;;;14.05;100.00;97182.38;5051163;28;20043;-71
2022/08/08 03:53:19;;;;;;;4.30;1.40;;;;;;;14.01;100.00;97185.81;5051548;28;20045;-71
2022/08/08 03:55:48;;;;;;;5.43;1.17;;;;;;;14.05;100.00;97186.97;5079762;28;20033;-71
2022/08/08 03:58:23;;;;;;;2.40;1.10;;;;;;;14.02;100.00;97188.28;5049803;28;20608;-71
2022/08/08 04:01:05;;;;;;;4.15;1.13;;;;;;;13.99;100.00;97188.78;5065155;28;20036;-71
2022/08/08 04:03:35;;;;;;;2.17;1.10;;;;;;;13.97;100.00;97193.59;5055823;28;20487;-71
2022/08/08 04:06:06;;;;;;;4.82;1.10;;;;;;;13.91;100.00;97190.03;5067763;28;20041;-71
2022/08/08 04:08:36;;;;;;;2.75;0.98;;;;;;;13.84;100.00;97196.66;5048984;28;20061;-71
2022/08/08 04:11:17;;;;;;;4.00;1.00;;;;;;;13.82;100.00;97198.81;5063094;28;20116;-71
2022/08/08 04:13:44;;;;;;;4.53;1.10;;;;;;;13.75;100.00;97201.69;5049373;28;20041;-71
2022/08/08 04:16:10;;;;;;;3.08;1.20;;;;;;;13.73;100.00;97200.31;5049526;28;20036;-71
2022/08/08 04:18:40;;;;;;;3.47;1.30;;;;;;;13.76;100.00;97197.13;5048110;28;20605;-71
2022/08/08 04:21:05;;;;;;;3.10;1.25;;;;;;;13.75;100.00;97204.38;5049350;28;20040;-71
2022/08/08 04:23:31;;;;;;;8.30;1.67;;;;;;;13.74;100.00;97201.94;5049978;28;20124;-71
2022/08/08 04:25:57;;;;;;;5.25;1.23;;;;;;;13.75;100.00;97203.56;5066810;28;20040;-71
2022/08/08 04:28:23;;;;;;;5.63;1.15;;;;;;;13.74;100.00;97204.63;5081430;27;21363;-71
2022/08/08 04:30:49;;;;;;;9.27;1.42;;;;;;;13.63;100.00;97206.38;5075860;28;20442;-71
2022/08/08 04:33:15;;;;;;;2.65;1.10;;;;;;;13.60;100.00;97206.88;5046465;28;20041;-71
2022/08/08 04:35:40;;;;;;;4.95;1.35;;;;;;;13.54;100.00;97203.31;5049062;28;20045;-71
2022/08/08 04:38:08;;;;;;;2.72;1.10;;;;;;;13.60;100.00;97207.69;5046186;28;20123;-71
2022/08/08 04:40:38;;;;;;;2.28;1.20;;;;;;;13.72;100.00;97207.56;5048662;28;20784;-71
2022/08/08 04:43:04;;;;;;;3.70;1.20;;;;;;;13.72;100.00;97202.19;5046370;28;20430;-71
2022/08/08 04:45:37;;;;;;;3.13;1.55;;;;;;;13.66;100.00;97204.00;5048073;28;20046;-71
2022/08/08 04:48:04;;;;;;;3.47;1.35;;;;;;;13.73;100.00;97206.50;5046827;28;20044;-71
2022/08/08 04:50:34;;;;;;;3.85;1.40;;;;;;;13.80;100.00;97211.69;5049534;28;20386;-71
2022/08/08 04:52:59;;;;;;;3.38;1.48;;;;;;;13.73;100.00;97209.19;5049770;28;20303;-71
2022/08/08 04:55:25;;;;;;;3.05;1.33;;;;;;;13.81;100.00;97218.69;5046739;28;20487;-71
2022/08/08 04:57:51;;;;;;;4.85;1.30;;;;;;;13.85;100.00;97217.97;5067994;28;20115;-72
2022/08/08 05:00:17;;;;;;;3.78;1.58;;;;;;;13.88;100.00;97222.03;5082051;27;20571;-71
2022/08/08 05:02:43;;;;;;;3.17;1.23;;;;;;;13.90;100.00;97222.56;5052560;28;20043;-71
2022/08/08 05:05:09;;;;;;;5.88;1.40;;;;;;;13.91;100.00;97229.56;5079191;27;20198;-71
2022/08/08 05:07:35;;;;;;;3.83;1.50;;;;;;;13.95;100.00;97236.09;5080456;28;20468;-71
2022/08/08 05:10:00;;;;;;;6.70;1.25;;;;;;;13.98;100.00;97230.19;5034325;28;20041;-71
2022/08/08 05:12:28;;;;;;;5.60;2.85;;;;;;;14.01;100.00;97229.72;5049474;28;20419;-71
2022/08/08 05:14:54;;;;;;;3.65;1.50;;;;;;;14.10;100.00;97235.47;5048186;28;20043;-71
2022/08/08 05:17:19;;;;;;;7.43;2.05;;;;;;;14.12;100.00;97234.13;5080021;28;20059;-71
2022/08/08 05:19:45;;;;;;;4.45;2.22;;;;;;;14.19;100.00;97225.88;5078287;28;20044;-71
2022/08/08 05:22:11;;;;;;;3.88;1.95;;;;;;;14.19;100.00;97229.38;5046912;28;20069;-71
2022/08/08 05:24:42;;;;;;;4.13;2.00;;;;;;;14.30;100.00;97237.56;5066390;28;20641;-71
2022/08/08 05:27:08;;;;;;;5.80;2.30;;;;;;;14.37;100.00;97230.91;5048920;28;20043;-72
2022/08/08 05:29:36;;;;;;;7.03;2.10;;;;;;;14.49;100.00;97241.56;5049197;28;20036;-71
2022/08/08 05:32:04;;;;;;;5.32;2.15;;;;;;;14.59;100.00;97238.97;5048830;28;20049;-72
2022/08/08 05:34:49;;;;;;;7.15;2.38;;;;;;;14.66;100.00;97242.25;5048238;28;20044;-72
2022/08/08 05:37:23;;;;;;;5.07;1.85;;;;;;;14.73;100.00;97245.56;5079744;27;20527;-72
2022/08/08 05:39:54;;;;;;;3.80;1.90;;;;;;;14.86;100.00;97247.00;5048751;28;20060;-72
2022/08/08 05:42:26;;;;;;;5.05;2.08;;;;;;;14.95;100.00;97242.78;5063129;28;20047;-72
2022/08/08 05:44:53;;;;;;;6.00;2.05;;;;;;;15.03;100.00;97239.63;5045077;28;20214;-72
2022/08/08 05:47:21;;;;;;;5.88;1.92;;;;;;;15.13;100.00;97252.38;5044768;28;20029;-72
2022/08/08 05:49:47;;;;;;;6.90;2.17;;;;;;;15.18;100.00;97238.13;5034036;28;20096;-72
2022/08/08 05:52:13;;;;;;;7.18;1.83;;;;;;;15.23;100.00;97249.72;5031026;28;20393;-71
2022/08/08 05:54:39;;;;;;;5.85;1.90;;;;;;;15.38;100.00;97250.91;5047588;28;20055;-72
2022/08/08 05:57:13;;;;;;;3.67;2.05;;;;;;;15.45;100.00;97249.63;5047286;28;20036;-72
2022/08/08 05:59:42;;;;;;;4.30;2.20;;;;;;;15.59;100.00;97248.09;5079800;28;20039;-72
2022/08/08 06:05:04;;;;;;;5.38;2.40;;;;;;;15.90;96.60;97253.66;5048711;28;20044;-72
2022/08/08 06:07:31;;;;;;;5.20;2.40;;;;;;;15.94;96.67;97249.34;5044635;28;20037;-72
2022/08/08 06:10:00;;;;;;;5.90;2.20;;;;;;;16.01;97.40;97257.22;5050767;28;20047;-72
2022/08/08 06:12:26;;;;;;;4.97;2.10;;;;;;;16.12;95.64;97250.81;5045722;28;20339;-72
2022/08/08 06:14:53;;;;;;;6.13;2.35;;;;;;;16.27;95.24;97258.16;5044481;28;20115;-72
2022/08/08 06:17:20;;;;;;;4.13;2.25;;;;;;;16.36;95.23;97257.34;5079335;28;20036;-72
2022/08/08 06:19:54;;;;;;;6.18;2.55;;;;;;;16.48;94.92;97257.09;5033161;28;20446;-72
2022/08/08 06:22:19;;;;;;;4.45;2.13;;;;;;;16.55;94.64;97263.06;5067441;28;20037;-72
2022/08/08 06:24:49;;;;;;;4.97;2.00;;;;;;;16.66;94.09;97259.31;5068928;28;20044;-72
2022/08/08 06:27:21;;;;;;;5.00;2.25;;;;;;;16.79;95.07;97265.28;5052671;28;20044;-72
2022/08/08 06:30:01;;;;;;;4.90;2.00;;;;;;;16.86;94.82;97266.66;5075197;28;20048;-72
2022/08/08 06:32:41;;;;;;;4.25;1.80;;;;;;;16.98;93.55;97271.81;5062672;28;20277;-72
2022/08/08 06:35:10;;;;;;;6.70;2.30;;;;;;;17.05;93.62;97274.25;5044796;28;20032;-72
2022/08/08 06:37:43;;;;;;;4.45;1.88;;;;;;;17.09;94.79;97283.44;5046938;28;20075;-72
2022/08/08 06:40:15;;;;;;;3.63;1.80;;;;;;;17.24;92.94;97283.44;5065204;28;20036;-72
2022/08/08 06:43:09;;;;;;;3.80;1.60;;;;;;;17.33;91.17;97279.09;5050035;28;20126;-72
2022/08/08 06:45:42;;;;;;;5.88;1.65;;;;;;;17.40;90.69;97279.63;5050210;28;20071;-72
2022/08/08 06:48:08;;;;;;;3.35;1.50;;;;;;;17.48;90.71;97276.38;5077424;28;20570;-72
2022/08/08 06:50:36;;;;;;;6.15;1.50;;;;;;;17.54;90.49;97286.13;5044200;28;20391;-72
2022/08/08 06:53:07;;;;;;;4.95;1.77;;;;;;;17.59;92.74;97281.78;5044740;28;20032;-72
2022/08/08 06:55:35;;;;;;;3.75;1.63;;;;;;;17.65;91.25;97289.59;5046871;28;20087;-72
2022/08/08 06:58:01;;;;;;;3.95;1.67;;;;;;;17.70;90.76;97283.38;5046114;28;20421;-72
2022/08/08 07:00:33;;;;;;;7.35;2.10;;;;;;;17.79;90.48;97281.78;5044740;28;20044;-73
2022/08/08 07:03:01;;;;;;;4.15;1.75;;;;;;;17.91;91.11;97293.13;5049640;28;20267;-73
2022/08/08 07:05:31;;;;;;;4.00;1.67;;;;;;;17.98;90.36;97292.84;5047163;28;20090;-73
2022/08/08 07:08:16;;;;;;;5.78;1.45;;;;;;;18.04;89.73;97292.50;5049152;28;20068;-73
2022/08/08 07:10:48;;;;;;;2.83;1.33;;;;;;;18.13;89.48;97297.38;5062411;28;20502;-73
2022/08/08 07:13:19;;;;;;;4.10;1.20;;;;;;;18.19;88.58;97296.25;5054127;28;20043;-73
2022/08/08 07:15:57;;;;;;;3.30;1.45;;;;;;;18.26;88.97;97296.78;5067711;28;20066;-73
2022/08/08 07:18:28;;;;;;;3.60;1.20;;;;;;;18.31;89.53;97299.47;5045666;28;20075;-73
2022/08/08 07:21:02;;;;;;;4.15;1.55;;;;;;;18.41;88.87;97304.84;5066251;28;20391;-73
2022/08/08 07:23:37;;;;;;;3.30;1.30;;;;;;;18.50;88.07;97302.34;5050502;28;20047;-72
2022/08/08 07:26:02;;;;;;;2.67;1.23;;;;;;;18.60;86.25;97302.31;5051642;28;20048;-73
2022/08/08 07:28:29;;;;;;;3.47;1.23;;;;;;;18.71;85.19;97303.09;5054145;28;20096;-72
2022/08/08 07:30:57;;;;;;;4.22;1.30;;;;;;;18.83;84.65;97311.69;5048496;28;20049;-73
2022/08/08 07:33:27;;;;;;;2.75;1.05;;;;;;;18.91;83.60;97303.00;5046906;28;20053;-73
2022/08/08 07:35:55;;;;;;;2.92;1.20;;;;;;;18.95;82.99;97304.03;5051904;28;20044;-73
2022/08/08 07:38:21;;;;;;;2.85;1.05;;;;;;;19.00;82.99;97298.59;5048427;28;20120;-73
2022/08/08 07:40:57;;;;;;;2.63;1.13;;;;;;;19.09;83.26;97313.16;5052362;28;20052;-73
2022/08/08 07:43:24;;;;;;;4.55;1.20;;;;;;;19.05;82.29;97297.72;5053455;28;20128;-73
2022/08/08 07:45:52;;;;;;;3.13;0.93;;;;;;;19.10;80.81;97303.91;5064521;28;20045;-73
2022/08/08 07:48:18;;;;;;;3.30;1.00;;;;;;;19.15;79.99;97312.03;5080643;28;20067;-73
2022/08/08 07:50:47;;;;;;;2.70;1.08;;;;;;;19.23;79.99;97301.66;5050538;28;20053;-73
2022/08/08 07:53:33;;;;;;;6.45;1.13;;;;;;;19.30;77.51;97307.56;5051041;28;20375;-73
2022/08/08 07:56:01;;;;;;;8.25;1.30;;;;;;;19.40;77.38;97310.22;5047362;28;20428;-73
2022/08/08 07:58:37;;;;;;;5.63;1.20;;;;;;;19.47;75.67;97310.69;5053574;28;20045;-72
2022/08/08 08:01:09;;;;;;;2.25;1.00;;;;;;;19.54;76.83;97311.19;5081276;28;20048;-72
2022/08/08 08:03:56;;;;;;;2.85;1.15;;;;;;;19.65;76.92;97304.56;5051406;28;20071;-72
2022/08/08 08:06:26;;;;;;;2.92;0.93;;;;;;;19.70;74.50;97317.31;5067465;28;20108;-72
2022/08/08 08:09:20;;;;;;;2.13;1.00;;;;;;;19.76;71.14;97321.56;5052511;28;20347;-72
2022/08/08 08:11:49;;;;;;;5.50;1.42;;;;;;;19.80;74.35;97314.47;5068418;28;20036;-72
2022/08/08 08:14:40;;;;;;;4.57;1.27;;;;;;;19.83;75.61;97321.22;5034904;28;20474;-72
2022/08/08 08:17:08;;;;;;;3.60;1.23;;;;;;;19.90;77.64;97327.13;5043992;28;20339;-72
2022/08/08 08:19:35;;;;;;;1.85;0.80;;;;;;;19.99;72.40;97325.41;5080703;28;20111;-72
2022/08/08 08:22:01;;;;;;;3.10;1.10;;;;;;;20.07;72.15;97323.97;5081076;28;20071;-72
2022/08/08 08:24:33;;;;;;;2.85;0.90;;;;;;;20.14;75.51;97325.25;5032825;28;20032;-72
2022/08/08 08:27:00;;;;;;;3.10;1.33;;;;;;;20.22;69.38;97318.38;5081919;27;20332;-72
2022/08/08 08:29:27;;;;;;;4.13;1.20;;;;;;;20.26;71.12;97322.13;5046924;28;20032;-72
2022/08/08 08:31:53;;;;;;;2.50;0.90;;;;;;;20.27;68.32;97321.03;5050513;28;20040;-72
2022/08/08 08:34:19;;;;;;;3.53;1.27;;;;;;;20.30;68.95;97318.53;5048535;28;20075;-72
2022/08/08 08:36:44;;;;;;;4.03;1.48;;;;;;;20.48;66.47;97318.91;5049100;28;20033;-72
2022/08/08 08:39:11;;;;;;;4.38;1.20;;;;;;;20.58;64.40;97319.59;5030967;28;20028;-72
2022/08/08 08:41:41;;;;;;;4.97;1.23;;;;;;;20.60;57.28;97327.44;5048374;28;20084;-72
2022/08/08 08:44:09;;;;;;;2.90;0.95;;;;;;;20.75;52.24;97321.81;5049843;28;20044;-72
2022/08/08 08:46:36;;;;;;;4.38;1.00;;;;;;;21.04;52.94;97324.38;5046843;28;20037;-72
2022/08/08 08:49:03;;;;;;;4.07;1.00;;;;;;;21.19;50.25;97317.91;5032373;28;20048;-72
2022/08/08 08:51:33;;;;;;;2.60;0.98;;;;;;;21.31;45.36;97322.91;5031948;28;20147;-72
2022/08/08 08:54:03;;;;;;;2.10;0.90;;;;;;;21.39;46.10;97325.75;5079172;27;20036;-72
2022/08/08 08:56:35;;;;;;;4.35;0.98;;;;;;;21.38;45.36;97324.16;5581118;22;20057;-72
2022/08/08 08:59:07;;;;;;;2.47;1.00;;;;;;;21.33;44.77;97332.41;5050321;28;20068;-72
2022/08/08 09:01:37;;;;;;;2.83;1.10;;;;;;;21.32;43.73;97321.81;5032524;28;20415;-72
2022/08/08 09:04:19;;;;;;;3.45;0.90;;;;;;;21.45;43.99;97325.69;5049589;28;21012;-72
2022/08/08 09:06:47;;;;;;;4.45;1.20;;;;;;;21.66;43.65;97325.06;5033913;28;20032;-72
2022/08/08 09:09:25;;;;;;;2.13;0.93;;;;;;;21.76;43.01;97310.44;5032984;28;20037;-72
2022/08/08 09:11:54;;;;;;;3.10;1.23;;;;;;;21.83;42.05;97327.22;5033719;28;20045;-72
2022/08/08 09:14:24;;;;;;;2.75;0.95;;;;;;;21.90;42.75;97321.38;5048086;28;20041;-72
2022/08/08 09:16:51;;;;;;;2.75;1.00;;;;;;;22.04;43.30;97324.13;5035701;28;20037;-72
2022/08/08 09:19:17;;;;;;;4.18;1.10;;;;;;;22.13;40.20;97331.31;5050404;28;20072;-73
2022/08/08 09:24:22;;;;;;;4.00;1.10;;;;;;;22.46;42.45;97333.94;2386425;22;20159;-72
2022/08/08 09:27:04;;;;;;;3.50;1.10;;;;;;;22.54;41.11;97338.69;5032285;28;20060;-72
2022/08/08 09:30:14;;;;;;;2.80;1.00;;;;;;;22.53;39.51;97332.44;5031310;28;20053;-71
2022/08/08 09:32:53;;;;;;;5.28;2.13;;;;;;;22.49;41.49;97336.09;4947881;28;20046;-71
2022/08/08 09:35:27;;;;;;;4.35;1.15;;;;;;;22.66;40.74;97330.81;4949871;28;20042;-71
2022/08/08 09:38:00;;;;;;;3.42;1.08;;;;;;;22.93;40.53;97338.16;5008335;28;20053;-71
2022/08/08 09:40:31;;;;;;;2.75;0.80;;;;;;;23.02;38.66;97325.38;5027865;28;20500;-72
2022/08/08 09:43:16;;;;;;;3.00;1.10;;;;;;;23.12;39.32;97320.84;5033283;28;20033;-72
2022/08/08 09:46:00;;;;;;;3.95;1.00;;;;;;;23.31;40.78;97319.53;5032263;28;20041;-72
2022/08/08 09:48:30;;;;;;;2.85;0.90;;;;;;;23.21;38.98;97325.25;5032380;28;20079;-72
2022/08/08 09:50:56;;;;;;;5.20;1.55;;;;;;;23.25;39.47;97319.97;5031196;28;20459;-73
2022/08/08 09:53:27;;;;;;;3.55;0.80;;;;;;;23.45;39.35;97315.94;5005913;28;20527;-72
2022/08/08 09:55:53;;;;;;;3.88;1.67;;;;;;;23.63;39.80;97323.97;5032071;28;20041;-73
2022/08/08 09:58:20;;;;;;;4.15;1.20;;;;;;;23.50;37.31;97316.63;5035253;28;20331;-72
2022/08/08 10:00:48;;;;;;;2.70;1.00;;;;;;;23.46;38.43;97315.63;5033487;28;20049;-73
2022/08/08 10:03:17;;;;;;;4.70;0.90;;;;;;;23.87;38.64;97317.34;5028347;28;20256;-73
2022/08/08 10:05:44;;;;;;;12.07;1.00;;;;;;;23.75;36.82;97319.88;5023059;28;20044;-73
2022/08/08 10:08:11;;;;;;;4.90;1.10;;;;;;;23.95;39.16;97327.50;5030246;28;20037;-72
2022/08/08 10:10:42;;;;;;;5.97;1.40;;;;;;;24.23;38.70;97319.94;5033583;28;20045;-72
2022/08/08 10:13:19;;;;;;;3.88;0.90;;;;;;;24.36;37.42;97319.06;5032107;28;21036;-72
2022/08/08 10:15:47;;;;;;;5.88;1.10;;;;;;;24.53;38.41;97314.75;5030484;28;20037;-72
2022/08/08 10:18:23;;;;;;;6.13;1.10;;;;;;;24.68;37.01;97317.84;5032054;28;20093;-72
2022/08/08 10:20:53;;;;;;;4.35;1.25;;;;;;;24.79;36.29;97314.81;5032753;28;20045;-73
2022/08/08 10:23:27;;;;;;;4.03;1.00;;;;;;;24.83;35.85;97311.13;5030145;28;20156;-73
2022/08/08 10:25:54;;;;;;;2.67;1.00;;;;;;;24.93;36.05;97299.84;5031668;28;20535;-73
2022/08/08 10:28:21;;;;;;;4.15;1.08;;;;;;;25.07;35.85;97305.22;5028757;28;20312;-73
2022/08/08 10:30:57;;;;;;;3.67;1.08;;;;;;;25.19;34.88;97301.81;5031344;28;20484;-72
2022/08/08 10:33:31;;;;;;;2.45;1.17;;;;;;;25.08;34.92;97309.56;5013226;28;20036;-72
2022/08/08 10:36:00;;;;;;;4.18;1.00;;;;;;;25.41;35.99;97298.09;5032036;28;20116;-72
2022/08/08 10:38:31;;;;;;;3.05;1.00;;;;;;;25.65;35.45;97305.78;5029708;28;20154;-72
2022/08/08 10:41:02;;;;;;;5.48;0.86;;;;;;;25.72;35.21;97297.91;4682102;28;10001483;-72
2022/08/08 10:43:39;;;;;;;7.15;1.27;;;;;;;25.88;34.61;97304.47;4684027;28;9999971;-72
2022/08/08 10:46:24;;;;;;;3.88;1.30;;;;;;;26.24;34.49;97304.03;5027080;28;20135;-72
2022/08/08 10:48:54;;;;;;;6.18;1.00;;;;;;;26.26;32.84;97304.50;5029085;28;20602;-72
2022/08/08 10:51:25;;;;;;;3.90;1.05;;;;;;;26.41;31.75;97303.16;5002662;28;20036;-72
2022/08/08 10:53:54;;;;;;;3.33;1.10;;;;;;;26.09;32.56;97301.84;5030154;28;20040;-71
2022/08/08 10:56:20;;;;;;;3.75;1.17;;;;;;;26.65;32.37;97297.84;5030548;28;20567;-71
2022/08/08 10:58:46;;;;;;;2.28;0.93;;;;;;;27.03;31.11;97296.97;5028775;28;20112;-72
2022/08/08 11:01:12;;;;;;;6.63;1.08;;;;;;;27.42;31.31;97295.69;5028006;28;20049;-72
2022/08/08 11:03:42;;;;;;;5.00;1.10;;;;;;;27.64;31.26;97288.19;5031448;28;20142;-72
2022/08/08 11:06:08;;;;;;;3.53;1.10;;;;;;;28.12;30.82;97287.53;5031138;28;20167;-72
2022/08/08 11:08:35;;;;;;;3.78;1.20;;;;;;;29.18;28.91;97294.78;5029304;28;20037;-72
2022/08/08 11:11:08;;;;;;;5.63;1.70;;;;;;;29.75;27.65;97285.41;5025681;28;20047;-72
2022/08/08 11:13:42;;;;;;;5.03;1.05;;;;;;;31.22;25.63;97282.25;5030420;28;20111;-72
2022/08/08 11:16:12;;;;;;;6.68;1.17;;;;;;;33.25;24.49;97277.41;5025380;28;20040;-72
2022/08/08 11:18:38;;;;;;;4.82;1.10;;;;;;;35.06;22.06;97266.38;5028346;28;20045;-72
2022/08/08 11:21:06;;;;;;;4.68;0.93;;;;;;;36.59;20.31;97260.38;5024487;28;20040;-73
2022/08/08 11:23:33;;;;;;;5.10;1.25;;;;;;;36.39;20.39;97261.97;5028438;28;20389;-73
2022/08/08 11:26:12;;;;;;;3.95;1.10;;;;;;;35.83;20.75;97258.72;5028592;28;20041;-72
2022/08/08 11:28:39;;;;;;;2.80;1.20;;;;;;;38.00;19.62;97259.44;5030539;28;20344;-73
2022/08/08 11:31:05;;;;;;;2.95;1.10;;;;;;;39.24;18.23;97255.53;5026951;28;20135;-73
2022/08/08 11:33:36;;;;;;;2.70;1.20;;;;;;;40.33;16.81;97254.38;5030143;28;20041;-72
2022/08/08 11:36:02;;;;;;;4.25;1.10;;;;;;;39.91;16.46;97257.81;5027664;28;20036;-72
2022/08/08 11:38:29;;;;;;;3.78;1.00;;;;;;;41.06;16.69;97258.31;5028564;28;20049;-72
2022/08/08 11:40:54;;;;;;;4.20;0.90;;;;;;;40.57;16.00;97254.41;5030356;28;20059;-73
2022/08/08 11:43:23;;;;;;;3.15;1.10;;;;;;;38.15;17.85;97263.72;5028763;28;20045;-71
2022/08/08 11:45:51;;;;;;;4.75;1.05;;;;;;;40.59;16.32;97257.56;5028577;28;20037;-72
2022/08/08 11:48:18;;;;;;;3.92;1.17;;;;;;;42.31;15.33;97254.78;5044126;28;20056;-72
2022/08/08 11:50:45;;;;;;;4.43;0.98;;;;;;;43.49;13.52;97238.34;5045219;28;20098;-73
2022/08/08 11:53:11;;;;;;;6.43;1.30;;;;;;;43.86;13.74;97243.25;5031172;28;20083;-73
2022/08/08 11:55:48;;;;;;;2.83;1.10;;;;;;;44.97;12.95;97246.00;5034356;28;20037;-73
2022/08/08 11:58:13;;;;;;;3.75;1.02;;;;;;;44.58;13.33;97240.94;5033019;28;20115;-72
2022/08/08 12:00:47;;;;;;;3.13;0.95;;;;;;;44.07;13.25;97244.59;5034188;28;20053;-72
2022/08/08 12:03:16;;;;;;;2.97;1.02;;;;;;;44.20;13.93;97238.94;5033628;28;20399;-72
2022/08/08 12:05:41;;;;;;;3.10;1.13;;;;;;;43.85;12.72;97236.03;5034935;28;20032;-73
2022/08/08 12:08:07;;;;;;;3.78;1.27;;;;;;;40.32;14.90;97238.78;5034430;28;20093;-73